KMTP/MTP METAR and TAF weather

Enter ICAO airport designator
Station Type Date Time Source
KMTP METAR 2022/01/26 18:54 UTC NOAA

KMTP 261854Z AUTO 33012G17KT M02/M17 A3027 RMK AO1 SLP249 T10221167


Station Type Date Time Source
KMTP Decoded METAR 2022/01/26 18:54 UTC NOAA

MONTAUK AIRPORT, NY, United States (KMTP) 41-04N 071-55W 2M
Jan 26, 2022 - 01:54 PM EST / 2022.01.26 1854 UTC
Wind: from the NNW (330 degrees) at 14 MPH (12 KT) gusting to 20 MPH (17 KT):0
Temperature: 28.0 F (-2.2 C)
Windchill: 17 F (-8 C):1
Dew Point: 1.9 F (-16.7 C)
Relative Humidity: 31%
Pressure (altimeter): 30.27 in. Hg (1025 hPa)
ob: KMTP 261854Z AUTO 33012G17KT M02/M17 A3027 RMK AO1 SLP249 T10221167
cycle: 19

Station Type Date Time Source
KMTP TAF UTC NOAA

Error!

Example: see airport list